Cover City, Nevada
Current Conditions -  °F | °C
As of 5:55 AM on Friday 24 Oct 2014 (Local Time) from KENV Reporting Station
Clear Clear  
Wind Chill:   Ceiling: Unl
Heat Index:   Visibility: 10mi
Dew Point: -1°   Wind: 3mph
Humidity: 61%   Direction: 270°W
Pressure: 30.14"   Gusts: NA
Location:  41.0114°N, 114.57°W
Report Text: KENV 241255Z AUTO 27003KT 10SM CLR 06/M01 A3014 RMK AO1
Loading
Personal Weather Stations






























Interactive Weather Map
Tropical Storm Tracking
New forecast layout! Learn more

10-Day Weather Forecast

Advertisements
Track Severe Weather on mobile